Time;durP1;ratioP1;P1;durP2;ratioP2;P2;SDS_P1;SDS_P2;PMS_P1;PMS_P2;Temp;Humidity;BMP_temperature;BMP_pressure;BME280_temperature;BME280_humidity;BME280_pressure;Samples;Min_cycle;Max_cycle;Signal;HPM_P1;HPM_P2
2023/08/26 07:07:43;;;;;;;12.82;9.10;;;20.30;99.90;;;;;;6365966;27;20322;-81
2023/08/26 07:10:45;;;;;;;12.73;8.98;;;20.10;99.90;;;;;;6289942;27;20198;-82
2023/08/26 07:13:47;;;;;;;10.65;7.97;;;20.10;99.90;;;;;;6298832;28;20082;-82
2023/08/26 07:16:49;;;;;;;10.05;6.53;;;20.10;99.90;;;;;;6303411;28;20048;-82
2023/08/26 07:19:51;;;;;;;8.77;7.45;;;20.00;99.90;;;;;;6320212;28;20048;-82
2023/08/26 07:22:54;;;;;;;10.43;8.35;;;20.10;99.90;;;;;;6312581;28;20048;-81
2023/08/26 07:25:56;;;;;;;10.13;7.03;;;20.10;99.90;;;;;;6280827;28;20045;-82
2023/08/26 07:28:58;;;;;;;10.63;6.82;;;20.20;99.90;;;;;;6272182;28;20064;-82
2023/08/26 07:31:59;;;;;;;9.45;7.30;;;20.20;99.90;;;;;;6291906;28;20055;-81
2023/08/26 07:35:02;;;;;;;9.18;7.78;;;20.20;99.90;;;;;;6293571;28;20057;-81
2023/08/26 07:38:12;;;;;;;8.10;7.18;;;20.10;99.90;;;;;;6284792;28;20045;-81
2023/08/26 07:41:13;;;;;;;9.20;7.15;;;20.00;99.90;;;;;;6295544;28;20040;-81
2023/08/26 07:44:19;;;;;;;15.02;8.00;;;19.90;99.90;;;;;;6289563;28;20045;-82
2023/08/26 07:47:41;;;;;;;10.02;7.65;;;19.90;99.90;;;;;;6339531;28;20044;-83
2023/08/26 07:50:55;;;;;;;11.60;6.03;;;20.20;99.90;;;;;;6324473;28;20040;-82
2023/08/26 07:54:00;;;;;;;5.47;4.93;;;20.80;99.90;;;;;;6327311;28;20044;-82
2023/08/26 07:57:02;;;;;;;8.07;3.70;;;22.30;99.90;;;;;;6322651;28;20051;-82
2023/08/26 08:00:06;;;;;;;4.78;3.33;;;23.10;99.90;;;;;;6319403;28;20162;-79
2023/08/26 08:03:07;;;;;;;7.95;3.40;;;24.00;99.90;;;;;;6322257;28;20055;-79
2023/08/26 08:06:09;;;;;;;7.05;2.50;;;24.70;99.90;;;;;;6327011;28;20062;-79
2023/08/26 08:09:12;;;;;;;4.88;1.92;;;25.00;99.90;;;;;;6324070;28;20140;-81
2023/08/26 08:12:14;;;;;;;4.15;2.58;;;24.90;99.90;;;;;;6334534;28;20089;-80
2023/08/26 08:15:16;;;;;;;2.65;2.45;;;24.80;99.90;;;;;;6320098;28;20212;-79
2023/08/26 08:18:18;;;;;;;6.72;2.80;;;24.60;99.90;;;;;;6308582;28;20068;-80
2023/08/26 08:21:20;;;;;;;3.58;2.20;;;24.80;99.90;;;;;;6303579;28;20052;-79
2023/08/26 08:24:23;;;;;;;4.68;1.50;;;25.00;99.90;;;;;;6303914;28;20415;-79
2023/08/26 08:27:25;;;;;;;2.17;1.98;;;25.30;99.90;;;;;;6319876;28;20153;-79
2023/08/26 08:30:26;;;;;;;3.80;2.17;;;25.50;99.90;;;;;;6309833;28;20052;-79
2023/08/26 08:33:29;;;;;;;1.58;1.40;;;25.70;99.90;;;;;;6318389;28;20059;-78
2023/08/26 08:36:31;;;;;;;4.22;2.08;;;25.80;99.90;;;;;;6325427;28;20064;-79
2023/08/26 08:39:36;;;;;;;5.47;2.10;;;25.70;99.90;;;;;;6307206;28;20496;-79
2023/08/26 08:42:41;;;;;;;4.47;1.98;;;25.50;99.90;;;;;;6305662;28;20071;-79
2023/08/26 08:45:43;;;;;;;5.45;2.50;;;25.30;99.90;;;;;;6306037;28;20104;-81
2023/08/26 08:48:44;;;;;;;4.65;2.25;;;25.30;99.90;;;;;;6306127;28;20036;-81
2023/08/26 08:51:46;;;;;;;1.90;1.58;;;25.50;99.90;;;;;;6306380;28;20052;-82
2023/08/26 08:54:49;;;;;;;3.15;2.00;;;25.90;99.90;;;;;;6304378;28;20507;-82
2023/08/26 08:57:53;;;;;;;3.75;1.77;;;26.10;99.90;;;;;;6304161;28;20044;-82
2023/08/26 09:00:57;;;;;;;1.85;1.40;;;25.90;99.90;;;;;;6310483;28;20056;-81
2023/08/26 09:03:58;;;;;;;3.78;1.95;;;25.40;99.90;;;;;;6312605;28;20074;-82
2023/08/26 09:07:03;;;;;;;4.65;1.85;;;25.00;99.90;;;;;;6305542;28;20053;-82
2023/08/26 09:10:09;;;;;;;4.60;2.70;;;24.80;99.90;;;;;;6306102;28;20058;-82
2023/08/26 09:13:12;;;;;;;6.45;2.78;;;24.50;99.90;;;;;;6306812;28;20132;-82
2023/08/26 09:16:13;;;;;;;3.40;2.05;;;24.30;99.90;;;;;;6305555;28;20048;-82
2023/08/26 09:19:15;;;;;;;3.25;2.38;;;24.20;99.90;;;;;;6306114;28;20048;-82
2023/08/26 09:22:18;;;;;;;4.07;2.28;;;24.10;99.90;;;;;;6305053;28;20056;-82
2023/08/26 09:25:21;;;;;;;4.10;1.48;;;24.20;99.90;;;;;;6304427;28;20127;-82
2023/08/26 09:28:24;;;;;;;5.47;1.90;;;24.40;99.90;;;;;;6302765;28;20044;-81
2023/08/26 09:31:26;;;;;;;4.78;2.55;;;24.70;99.90;;;;;;6307158;28;20051;-81
2023/08/26 09:34:30;;;;;;;2.40;1.75;;;24.90;99.90;;;;;;6306092;28;20052;-82
2023/08/26 09:37:31;;;;;;;4.30;1.90;;;25.30;99.90;;;;;;6302912;28;20052;-82
2023/08/26 09:40:34;;;;;;;4.53;1.48;;;25.50;99.90;;;;;;6310403;28;20044;-83
2023/08/26 09:43:36;;;;;;;2.67;1.90;;;25.50;99.90;;;;;;6326600;28;20106;-82
2023/08/26 09:46:39;;;;;;;6.57;2.88;;;25.20;99.90;;;;;;6306094;28;20047;-82
2023/08/26 09:49:48;;;;;;;4.10;2.65;;;25.10;99.90;;;;;;6307073;28;20048;-81
2023/08/26 09:52:49;;;;;;;2.22;2.03;;;25.20;99.90;;;;;;6308891;28;20044;-82
2023/08/26 09:55:54;;;;;;;4.93;2.15;;;25.00;99.90;;;;;;6320864;28;20055;-82
2023/08/26 09:58:56;;;;;;;4.57;2.25;;;24.80;99.90;;;;;;6329073;28;20048;-82
2023/08/26 10:02:03;;;;;;;3.15;1.92;;;24.90;99.90;;;;;;6337545;28;20491;-82
2023/08/26 10:05:10;;;;;;;8.38;2.05;;;24.90;99.90;;;;;;6330483;28;20051;-82
2023/08/26 10:08:12;;;;;;;3.83;1.48;;;24.80;99.90;;;;;;6329251;28;20055;-83
2023/08/26 10:11:18;;;;;;;5.93;2.60;;;24.60;99.90;;;;;;6335606;28;20044;-82
2023/08/26 10:14:22;;;;;;;5.47;2.03;;;24.50;99.90;;;;;;6337293;28;20510;-82
2023/08/26 10:17:26;;;;;;;3.78;3.15;;;24.40;99.90;;;;;;6331954;28;20051;-80
2023/08/26 10:20:28;;;;;;;5.22;2.75;;;24.00;99.90;;;;;;6336439;28;20036;-81
2023/08/26 10:23:30;;;;;;;2.63;1.83;;;23.80;99.90;;;;;;6328656;28;20128;-82
2023/08/26 10:26:34;;;;;;;8.57;3.50;;;23.60;99.90;;;;;;6328675;28;20425;-82
2023/08/26 10:29:37;;;;;;;3.83;2.78;;;23.30;99.90;;;;;;6313886;28;20044;-85
2023/08/26 10:32:43;;;;;;;2.75;2.22;;;23.10;99.90;;;;;;6318297;28;20058;-83
2023/08/26 10:35:59;;;;;;;3.30;2.03;;;22.90;99.90;;;;;;6325704;28;20047;-81
2023/08/26 10:39:02;;;;;;;6.32;2.90;;;22.80;99.90;;;;;;6302835;28;20064;-81
2023/08/26 10:42:14;;;;;;;5.40;2.13;;;22.80;99.90;;;;;;6301652;28;20053;-81
2023/08/26 10:45:16;;;;;;;3.95;2.40;;;22.70;99.90;;;;;;6317443;28;20086;-81
2023/08/26 10:48:19;;;;;;;3.58;1.80;;;22.80;99.90;;;;;;6300115;28;20049;-81
2023/08/26 10:51:21;;;;;;;4.38;1.85;;;22.90;99.90;;;;;;6301464;28;20059;-80
2023/08/26 10:54:30;;;;;;;2.80;1.45;;;22.80;99.90;;;;;;6302238;28;20523;-81
2023/08/26 10:57:36;;;;;;;3.83;2.47;;;22.80;99.90;;;;;;6301151;28;20049;-81
2023/08/26 11:00:39;;;;;;;2.30;1.33;;;22.70;99.90;;;;;;6301679;28;20048;-81
2023/08/26 11:03:43;;;;;;;6.43;2.65;;;22.60;99.90;;;;;;6301501;28;20051;-83
2023/08/26 11:06:45;;;;;;;5.10;2.30;;;22.50;99.90;;;;;;6300541;28;20040;-83
2023/08/26 11:09:47;;;;;;;6.57;2.33;;;22.40;99.90;;;;;;6299863;28;20048;-83
2023/08/26 11:12:50;;;;;;;4.10;3.17;;;22.30;99.90;;;;;;6302314;28;20048;-81
2023/08/26 11:15:52;;;;;;;4.65;2.45;;;22.30;99.90;;;;;;6301631;28;20082;-81
2023/08/26 11:18:54;;;;;;;4.18;2.22;;;22.30;99.90;;;;;;6301428;28;20044;-82
2023/08/26 11:21:57;;;;;;;3.03;1.88;;;22.20;99.90;;;;;;6300671;28;20064;-81
2023/08/26 11:24:59;;;;;;;4.45;2.33;;;22.20;99.90;;;;;;6300881;28;20045;-81
2023/08/26 11:28:07;;;;;;;5.97;2.78;;;22.20;99.90;;;;;;6300828;28;20178;-80
2023/08/26 11:31:11;;;;;;;3.45;2.08;;;22.20;99.90;;;;;;6301685;28;20058;-81
2023/08/26 11:34:13;;;;;;;2.70;1.80;;;22.10;99.90;;;;;;6299991;28;20044;-81
2023/08/26 11:37:18;;;;;;;6.28;2.10;;;22.00;99.90;;;;;;6300405;28;20044;-81
2023/08/26 11:40:20;;;;;;;5.05;2.30;;;21.90;99.90;;;;;;6300348;28;20448;-82
2023/08/26 11:43:24;;;;;;;2.17;1.48;;;21.70;99.90;;;;;;6302407;28;20056;-80
2023/08/26 11:46:26;;;;;;;1.88;1.63;;;21.60;99.90;;;;;;6303622;28;20064;-81
2023/08/26 11:49:28;;;;;;;6.70;2.75;;;21.50;99.90;;;;;;6320158;28;20502;-79
2023/08/26 11:52:32;;;;;;;1.90;1.50;;;21.40;99.90;;;;;;6344538;28;20047;-80
2023/08/26 11:55:35;;;;;;;6.15;1.90;;;21.50;99.90;;;;;;6330152;28;20050;-79
2023/08/26 11:58:39;;;;;;;4.70;1.92;;;21.50;99.90;;;;;;6342109;28;20132;-80
2023/08/26 12:01:40;;;;;;;1.77;1.48;;;21.50;99.90;;;;;;6334823;28;20044;-80
2023/08/26 12:04:42;;;;;;;2.72;1.90;;;21.50;99.90;;;;;;6339663;28;20047;-81
2023/08/26 12:07:45;;;;;;;2.83;1.30;;;21.30;99.90;;;;;;6331462;28;20131;-82
2023/08/26 12:10:47;;;;;;;4.88;2.47;;;21.20;99.90;;;;;;6355464;28;20530;-81
2023/08/26 12:13:50;;;;;;;1.77;1.30;;;21.20;99.90;;;;;;6335166;28;20509;-80
2023/08/26 12:17:02;;;;;;;2.70;1.48;;;21.10;99.90;;;;;;6328320;28;20499;-80
2023/08/26 12:20:18;;;;;;;1.67;1.30;;;21.00;99.90;;;;;;6329024;28;20083;-81
2023/08/26 12:23:21;;;;;;;2.95;1.90;;;20.90;99.90;;;;;;6330635;28;20115;-81
2023/08/26 12:26:25;;;;;;;3.45;3.10;;;20.80;99.90;;;;;;6329282;28;20047;-81
2023/08/26 12:29:28;;;;;;;1.80;1.50;;;20.70;99.90;;;;;;6331277;28;20040;-79
2023/08/26 12:32:29;;;;;;;3.83;1.83;;;20.70;99.90;;;;;;6330878;28;20517;-79
2023/08/26 12:35:31;;;;;;;3.55;1.35;;;20.80;99.90;;;;;;6331747;28;20059;-80
2023/08/26 12:38:33;;;;;;;2.95;1.40;;;20.90;99.90;;;;;;6330241;28;20416;-80
2023/08/26 12:41:34;;;;;;;2.50;2.10;;;20.90;99.90;;;;;;6329142;28;20063;-80
2023/08/26 12:44:38;;;;;;;2.58;1.38;;;20.70;99.90;;;;;;6350825;28;20058;-80
2023/08/26 12:47:39;;;;;;;2.28;1.60;;;20.70;99.90;;;;;;6351871;28;20043;-79
2023/08/26 12:50:41;;;;;;;5.88;1.60;;;20.70;99.90;;;;;;6352255;28;20044;-80
2023/08/26 12:53:44;;;;;;;2.58;2.13;;;20.70;99.90;;;;;;6352501;28;20040;-81
2023/08/26 12:56:45;;;;;;;2.75;1.65;;;20.70;99.90;;;;;;6331497;28;20051;-81
2023/08/26 12:59:48;;;;;;;2.75;1.67;;;20.70;99.90;;;;;;6327445;28;20068;-80
2023/08/26 13:02:51;;;;;;;3.15;1.55;;;20.80;99.90;;;;;;6327361;28;20048;-80
2023/08/26 13:05:54;;;;;;;2.08;1.23;;;20.90;99.90;;;;;;6326031;28;20059;-80
2023/08/26 13:08:56;;;;;;;5.18;1.80;;;21.00;99.90;;;;;;6325706;28;20510;-81
2023/08/26 13:11:58;;;;;;;1.83;1.25;;;21.10;99.90;;;;;;6326780;28;20052;-81
2023/08/26 13:15:01;;;;;;;5.07;1.52;;;21.20;99.90;;;;;;6329768;28;20044;-81
2023/08/26 13:18:03;;;;;;;5.35;1.80;;;21.30;99.90;;;;;;6336254;28;20063;-80
2023/08/26 13:21:04;;;;;;;4.25;2.03;;;21.30;99.90;;;;;;6336110;28;20044;-81
2023/08/26 13:24:07;;;;;;;2.17;1.52;;;21.40;99.90;;;;;;6337270;28;20125;-81
2023/08/26 13:27:08;;;;;;;3.30;1.63;;;21.40;99.90;;;;;;6335262;28;20054;-81
2023/08/26 13:30:12;;;;;;;6.57;1.50;;;21.40;99.90;;;;;;6335138;28;20442;-80
2023/08/26 13:33:14;;;;;;;4.03;1.95;;;21.40;99.90;;;;;;6328082;28;20513;-81
2023/08/26 13:36:16;;;;;;;5.10;1.90;;;21.50;99.90;;;;;;6336623;28;20081;-81
2023/08/26 13:39:18;;;;;;;7.93;1.95;;;21.50;99.90;;;;;;6341980;28;20055;-79
2023/08/26 13:42:20;;;;;;;4.68;1.83;;;21.60;99.90;;;;;;6332224;28;20044;-81
2023/08/26 13:45:23;;;;;;;3.65;2.10;;;21.60;99.90;;;;;;6345509;28;20070;-81
2023/08/26 13:48:25;;;;;;;5.93;1.90;;;21.60;99.90;;;;;;6334461;28;20043;-81
2023/08/26 13:51:27;;;;;;;1.85;1.75;;;21.70;99.90;;;;;;6330664;28;20051;-81
2023/08/26 13:54:29;;;;;;;1.95;1.35;;;21.70;99.90;;;;;;6339205;28;20040;-81
2023/08/26 13:57:30;;;;;;;2.80;1.85;;;21.70;99.90;;;;;;6332852;28;20040;-81
2023/08/26 14:00:33;;;;;;;3.60;1.60;;;21.80;99.90;;;;;;6337061;28;20371;-80
2023/08/26 14:03:35;;;;;;;2.15;1.60;;;21.70;99.90;;;;;;6325295;28;20051;-82
2023/08/26 14:06:37;;;;;;;4.07;1.92;;;21.80;99.90;;;;;;6341852;28;20122;-81
2023/08/26 14:09:38;;;;;;;2.42;1.38;;;22.00;99.90;;;;;;6341326;28;20040;-81
2023/08/26 14:12:40;;;;;;;3.13;2.35;;;22.20;99.90;;;;;;6338554;28;20043;-82
2023/08/26 14:15:44;;;;;;;2.75;1.73;;;22.50;99.90;;;;;;6333878;28;20051;-80
2023/08/26 14:18:48;;;;;;;3.13;1.77;;;22.80;99.90;;;;;;6345430;28;20054;-80
2023/08/26 14:21:50;;;;;;;4.68;2.17;;;23.00;99.90;;;;;;6347398;28;20071;-81
2023/08/26 14:24:51;;;;;;;3.72;2.03;;;23.10;99.90;;;;;;6345718;28;20040;-80
2023/08/26 14:27:53;;;;;;;2.90;1.85;;;23.20;99.90;;;;;;6334050;28;20054;-79
2023/08/26 14:30:56;;;;;;;3.28;1.90;;;23.40;99.90;;;;;;6333522;28;20048;-79
2023/08/26 14:33:58;;;;;;;2.33;1.58;;;23.50;99.90;;;;;;6329184;28;20048;-79
2023/08/26 14:37:00;;;;;;;2.78;1.50;;;23.50;99.90;;;;;;6332820;28;20121;-79
2023/08/26 14:40:02;;;;;;;5.50;1.77;;;23.60;99.90;;;;;;6337993;28;20051;-79
2023/08/26 14:43:04;;;;;;;4.63;1.98;;;23.70;99.90;;;;;;6348737;28;20055;-79
2023/08/26 14:46:07;;;;;;;4.22;1.52;;;24.20;99.90;;;;;;6336065;28;20044;-79
2023/08/26 14:49:11;;;;;;;2.38;2.10;;;24.50;99.90;;;;;;6335089;28;20418;-80
2023/08/26 14:52:13;;;;;;;4.13;1.83;;;24.90;99.90;;;;;;6327794;28;20052;-78
2023/08/26 14:55:15;;;;;;;3.10;1.80;;;25.30;99.90;;;;;;6343877;28;20063;-79
2023/08/26 14:58:17;;;;;;;2.08;1.30;;;25.20;99.90;;;;;;6334927;28;20036;-80
2023/08/26 15:01:20;;;;;;;2.65;1.40;;;25.30;99.90;;;;;;6334506;28;20052;-81
2023/08/26 15:04:21;;;;;;;7.03;1.80;;;25.60;98.60;;;;;;6326865;28;20502;-78
2023/08/26 15:07:23;;;;;;;5.15;1.83;;;25.80;97.20;;;;;;6331984;28;20044;-78
2023/08/26 15:10:25;;;;;;;2.78;1.83;;;25.40;95.60;;;;;;6331688;28;20048;-79
2023/08/26 15:13:28;;;;;;;2.50;1.98;;;25.20;95.70;;;;;;6324157;28;20051;-79
2023/08/26 15:16:31;;;;;;;3.50;2.08;;;25.20;94.90;;;;;;6326036;28;20044;-79
2023/08/26 15:19:33;;;;;;;3.67;2.13;;;25.40;94.50;;;;;;6338928;28;20040;-78
2023/08/26 15:22:35;;;;;;;4.13;1.73;;;25.50;93.90;;;;;;6332077;28;20042;-79
2023/08/26 15:25:39;;;;;;;1.48;1.38;;;25.90;93.50;;;;;;6333277;28;20051;-80
2023/08/26 15:28:40;;;;;;;2.03;1.23;;;25.70;92.10;;;;;;6339196;28;20390;-78
2023/08/26 15:31:44;;;;;;;4.00;1.40;;;25.30;92.00;;;;;;6335430;28;20483;-79
2023/08/26 15:37:55;;;;;;;5.35;1.63;;;25.50;91.50;;;;;;6262934;23;20095;-78
2023/08/26 15:40:58;;;;;;;4.00;1.98;;;25.10;91.60;;;;;;6244021;28;20061;-79
2023/08/26 15:44:00;;;;;;;2.90;1.73;;;24.70;91.80;;;;;;6255477;28;20049;-79
2023/08/26 15:47:03;;;;;;;1.60;1.50;;;24.40;92.40;;;;;;6248117;28;20049;-79
2023/08/26 15:50:05;;;;;;;4.32;1.70;;;24.40;92.60;;;;;;6250841;28;20076;-80
2023/08/26 15:53:07;;;;;;;2.83;1.85;;;24.30;92.50;;;;;;6253482;28;20065;-79
2023/08/26 15:56:10;;;;;;;2.75;1.60;;;23.90;92.60;;;;;;6251830;28;20046;-82
2023/08/26 15:59:12;;;;;;;3.15;1.48;;;23.80;92.90;;;;;;6253768;28;20195;-80
2023/08/26 16:02:16;;;;;;;3.53;2.05;;;23.50;93.20;;;;;;6253496;28;20477;-79
2023/08/26 16:05:17;;;;;;;2.85;2.10;;;23.30;93.50;;;;;;6251250;28;20053;-80
2023/08/26 16:08:19;;;;;;;6.40;1.83;;;23.20;94.00;;;;;;6256267;28;20046;-79
2023/08/26 16:11:23;;;;;;;3.88;2.55;;;23.20;94.40;;;;;;6255094;28;20042;-80
2023/08/26 16:14:26;;;;;;;3.83;1.90;;;23.00;94.60;;;;;;6255545;28;20672;-80
2023/08/26 16:17:30;;;;;;;3.75;2.53;;;22.90;94.80;;;;;;6250765;28;20052;-80
2023/08/26 16:20:35;;;;;;;3.90;1.88;;;22.80;95.10;;;;;;6256575;28;20045;-82
2023/08/26 16:23:37;;;;;;;8.10;2.17;;;22.70;95.40;;;;;;6238832;28;20064;-79
2023/08/26 16:26:40;;;;;;;2.72;2.53;;;22.60;95.70;;;;;;6251146;28;20526;-79
2023/08/26 16:29:45;;;;;;;4.43;3.05;;;22.50;96.10;;;;;;6253474;28;20496;-80
2023/08/26 16:32:56;;;;;;;3.63;2.38;;;22.30;96.20;;;;;;6256001;28;20045;-79
2023/08/26 16:36:02;;;;;;;6.82;2.53;;;22.10;96.40;;;;;;6253237;28;20220;-80
2023/08/26 16:39:04;;;;;;;3.20;1.98;;;21.90;96.90;;;;;;6253753;28;20108;-80
2023/08/26 16:42:06;;;;;;;3.30;1.98;;;21.80;97.20;;;;;;6259432;28;20052;-80
2023/08/26 16:45:22;;;;;;;8.02;2.65;;;21.70;97.50;;;;;;6261233;28;20060;-81
2023/08/26 16:48:26;;;;;;;5.47;2.30;;;21.60;97.80;;;;;;6247146;28;20049;-81
2023/08/26 16:51:27;;;;;;;2.95;2.13;;;21.60;98.10;;;;;;6271397;28;20081;-80
2023/08/26 16:54:29;;;;;;;4.85;2.25;;;21.50;98.40;;;;;;6273138;28;20159;-81
2023/08/26 16:57:31;;;;;;;5.10;2.35;;;21.50;98.70;;;;;;6259620;28;20076;-80
2023/08/26 17:00:34;;;;;;;4.50;2.83;;;21.40;99.10;;;;;;6268609;28;20048;-81
2023/08/26 17:03:37;;;;;;;27.98;6.15;;;21.40;99.40;;;;;;6262020;28;20053;-79
2023/08/26 17:06:38;;;;;;;3.88;2.58;;;21.40;99.90;;;;;;6255429;28;20041;-80
2023/08/26 17:09:40;;;;;;;5.85;3.67;;;21.40;99.90;;;;;;6262066;28;20045;-81
2023/08/26 17:12:42;;;;;;;8.68;3.35;;;21.40;99.90;;;;;;6261534;28;20048;-81
2023/08/26 17:15:44;;;;;;;3.60;2.15;;;21.40;99.90;;;;;;6252217;28;20196;-79
2023/08/26 17:18:47;;;;;;;4.53;2.53;;;21.40;99.90;;;;;;6256187;28;20052;-80
2023/08/26 17:21:49;;;;;;;3.08;2.13;;;21.30;99.90;;;;;;6253647;28;20084;-80
2023/08/26 17:24:50;;;;;;;4.93;2.17;;;21.30;99.90;;;;;;6254972;28;20048;-81
2023/08/26 17:27:54;;;;;;;5.75;1.95;;;21.20;99.90;;;;;;6247316;28;20057;-81
2023/08/26 17:30:56;;;;;;;4.10;2.00;;;21.10;99.90;;;;;;6254536;28;20489;-80
2023/08/26 17:33:59;;;;;;;3.90;2.20;;;21.10;99.90;;;;;;6259023;28;20052;-79
2023/08/26 17:37:00;;;;;;;5.70;3.05;;;21.00;99.90;;;;;;6256356;28;20052;-80
2023/08/26 17:40:02;;;;;;;3.72;2.40;;;21.00;99.90;;;;;;6249445;28;20051;-79
2023/08/26 17:43:04;;;;;;;5.50;2.67;;;21.00;99.90;;;;;;6241752;28;20100;-79
2023/08/26 17:46:06;;;;;;;4.75;2.17;;;20.90;99.90;;;;;;6246951;28;20056;-81
2023/08/26 17:49:09;;;;;;;4.28;2.28;;;21.00;99.90;;;;;;6255938;28;20053;-80
2023/08/26 17:52:11;;;;;;;3.60;2.05;;;21.00;99.90;;;;;;6237648;28;20053;-80
2023/08/26 17:55:13;;;;;;;4.30;2.55;;;21.00;99.90;;;;;;6240762;28;20121;-81
2023/08/26 17:58:14;;;;;;;2.40;2.17;;;21.00;99.90;;;;;;6254878;28;20037;-79
2023/08/26 18:01:16;;;;;;;4.18;2.25;;;20.90;99.90;;;;;;6253941;28;20053;-80
2023/08/26 18:04:19;;;;;;;3.97;2.80;;;20.90;99.90;;;;;;6257366;28;20051;-80
2023/08/26 18:07:23;;;;;;;13.57;2.65;;;20.90;99.90;;;;;;6252248;28;20516;-81
2023/08/26 18:10:25;;;;;;;5.45;3.00;;;20.90;99.90;;;;;;6248092;28;20046;-81
2023/08/26 18:13:26;;;;;;;3.00;2.60;;;20.90;99.90;;;;;;6241106;28;20053;-81
2023/08/26 18:16:28;;;;;;;4.38;2.70;;;20.90;99.90;;;;;;6246069;28;20053;-81
2023/08/26 18:19:33;;;;;;;4.90;2.65;;;20.80;99.90;;;;;;6252597;28;20511;-82
2023/08/26 18:22:35;;;;;;;6.22;2.75;;;20.80;99.90;;;;;;6248186;28;20060;-80
2023/08/26 18:25:37;;;;;;;3.58;2.53;;;20.80;99.90;;;;;;6251794;28;20045;-81
2023/08/26 18:28:38;;;;;;;4.45;3.97;;;20.80;99.90;;;;;;6251648;28;20046;-79
2023/08/26 18:31:40;;;;;;;5.80;3.10;;;20.70;99.90;;;;;;6251472;28;20046;-82
2023/08/26 18:34:44;;;;;;;3.10;2.22;;;20.70;99.90;;;;;;6255839;28;20041;-82
2023/08/26 18:37:45;;;;;;;3.97;2.28;;;20.60;99.90;;;;;;6253519;28;20064;-78
2023/08/26 18:40:55;;;;;;;5.30;2.20;;;20.50;99.90;;;;;;6251825;28;20042;-81
2023/08/26 18:43:56;;;;;;;7.07;3.30;;;20.40;99.90;;;;;;6253390;28;20059;-81
2023/08/26 18:46:58;;;;;;;8.07;2.92;;;20.30;99.90;;;;;;6248001;28;20076;-80
2023/08/26 18:50:01;;;;;;;10.55;3.85;;;20.10;99.90;;;;;;6244961;28;20049;-77
2023/08/26 18:53:03;;;;;;;13.48;3.72;;;19.90;99.90;;;;;;6248382;28;20049;-82
2023/08/26 18:56:05;;;;;;;4.47;3.35;;;19.80;99.90;;;;;;6249061;28;20054;-81
2023/08/26 18:59:07;;;;;;;5.05;3.42;;;19.50;99.90;;;;;;6259247;28;20416;-81
2023/08/26 19:02:08;;;;;;;7.63;5.28;;;19.40;99.90;;;;;;6251565;28;20053;-80
2023/08/26 19:05:11;;;;;;;4.10;3.03;;;19.30;99.90;;;;;;6251068;28;20049;-80
2023/08/26 19:08:13;;;;;;;7.47;2.92;;;19.10;99.90;;;;;;6249876;28;20056;-81
2023/08/26 19:11:15;;;;;;;14.77;4.20;;;19.00;99.90;;;;;;6246871;28;20056;-81
2023/08/26 19:14:16;;;;;;;8.05;2.90;;;18.90;99.90;;;;;;6253764;28;20049;-81
2023/08/26 19:17:18;;;;;;;10.88;4.88;;;18.80;99.90;;;;;;6245404;28;20049;-81
2023/08/26 19:20:21;;;;;;;5.88;3.70;;;18.70;99.90;;;;;;6250759;28;20064;-82
2023/08/26 19:23:23;;;;;;;4.50;3.35;;;18.50;99.90;;;;;;6253749;28;20535;-81
2023/08/26 19:26:25;;;;;;;5.07;4.57;;;18.50;99.90;;;;;;6250993;28;20045;-80
2023/08/26 19:29:27;;;;;;;11.38;4.07;;;18.50;99.90;;;;;;6250956;28;20038;-81
2023/08/26 19:32:29;;;;;;;4.38;3.97;;;18.40;99.90;;;;;;6251697;28;20055;-81
2023/08/26 19:35:32;;;;;;;7.53;3.83;;;18.30;99.90;;;;;;6249796;28;20045;-81
2023/08/26 19:38:33;;;;;;;9.13;3.55;;;18.30;99.90;;;;;;6248421;28;20057;-80
2023/08/26 19:41:35;;;;;;;5.97;3.72;;;18.40;99.90;;;;;;6244588;28;20045;-81
2023/08/26 19:44:37;;;;;;;5.85;4.22;;;18.30;99.90;;;;;;6253049;28;20109;-79
2023/08/26 19:47:39;;;;;;;14.82;5.47;;;18.20;99.90;;;;;;6243419;28;20053;-81
2023/08/26 19:50:42;;;;;;;7.18;3.80;;;18.30;99.90;;;;;;6248797;28;20041;-81
2023/08/26 19:53:44;;;;;;;12.07;3.67;;;18.40;99.90;;;;;;6246799;28;20041;-79
2023/08/26 19:56:46;;;;;;;5.50;3.95;;;18.50;99.90;;;;;;6243923;28;20520;-81
2023/08/26 19:59:50;;;;;;;4.43;4.03;;;18.40;99.90;;;;;;6251718;28;20052;-80
2023/08/26 20:02:52;;;;;;;6.68;4.35;;;18.40;99.90;;;;;;6247162;28;20048;-81
2023/08/26 20:05:55;;;;;;;12.93;4.60;;;18.30;99.90;;;;;;6250323;28;20042;-81
2023/08/26 20:08:57;;;;;;;6.38;4.57;;;18.30;99.90;;;;;;6250534;28;20088;-79
2023/08/26 20:11:59;;;;;;;6.63;4.03;;;18.20;99.90;;;;;;6244206;28;20054;-82
2023/08/26 20:15:03;;;;;;;7.47;4.55;;;18.20;99.90;;;;;;6254089;28;20061;-77
2023/08/26 20:18:06;;;;;;;8.20;4.13;;;18.00;99.90;;;;;;6247569;28;20113;-80
2023/08/26 20:21:09;;;;;;;11.48;4.03;;;18.00;99.90;;;;;;6248587;28;20108;-80
2023/08/26 20:24:11;;;;;;;9.48;4.65;;;17.90;99.90;;;;;;6257561;28;20504;-78
2023/08/26 20:27:12;;;;;;;8.50;3.65;;;17.80;99.90;;;;;;6250361;28;20496;-80
2023/08/26 20:30:14;;;;;;;9.65;4.28;;;17.80;99.90;;;;;;6253506;28;20060;-81
2023/08/26 20:33:16;;;;;;;6.28;4.40;;;17.70;99.90;;;;;;6255455;28;20496;-81
2023/08/26 20:36:19;;;;;;;6.82;4.10;;;17.70;99.90;;;;;;6253639;28;20045;-80
2023/08/26 20:39:21;;;;;;;5.70;4.05;;;17.70;99.90;;;;;;6256363;28;20461;-80
2023/08/26 20:42:25;;;;;;;9.95;4.95;;;17.70;99.90;;;;;;6249653;28;20057;-77
2023/08/26 20:45:26;;;;;;;8.77;5.07;;;17.70;99.90;;;;;;6252343;28;20046;-80
2023/08/26 20:48:28;;;;;;;6.47;4.53;;;17.60;99.90;;;;;;6253949;28;20041;-83
2023/08/26 20:51:31;;;;;;;10.50;5.00;;;17.60;99.90;;;;;;6253186;28;20045;-80
2023/08/26 20:54:33;;;;;;;9.27;4.35;;;17.40;99.90;;;;;;6258118;28;20038;-80
2023/08/26 20:57:35;;;;;;;9.10;4.38;;;17.50;99.90;;;;;;6251413;28;20045;-81
2023/08/26 21:00:36;;;;;;;6.38;3.85;;;17.40;99.90;;;;;;6254300;28;20063;-79
2023/08/26 21:03:38;;;;;;;16.98;4.72;;;17.40;99.90;;;;;;6257386;28;20077;-81
2023/08/26 21:06:41;;;;;;;15.00;4.35;;;17.30;99.90;;;;;;6250764;28;20121;-81
2023/08/26 21:09:45;;;;;;;7.45;4.20;;;17.20;99.90;;;;;;6255761;28;20041;-80
2023/08/26 21:12:47;;;;;;;9.45;4.82;;;17.20;99.90;;;;;;6251242;28;20125;-80
2023/08/26 21:15:49;;;;;;;4.78;4.32;;;17.10;99.90;;;;;;6254940;28;20614;-81
2023/08/26 21:18:50;;;;;;;7.60;5.50;;;17.20;99.90;;;;;;6257825;28;20046;-80
2023/08/26 21:21:53;;;;;;;8.55;4.85;;;17.20;99.90;;;;;;6251101;28;20065;-81
2023/08/26 21:24:55;;;;;;;5.57;5.07;;;17.10;99.90;;;;;;6255155;28;20045;-79
2023/08/26 21:27:57;;;;;;;7.57;4.43;;;17.10;99.90;;;;;;6230852;28;20050;-78
2023/08/26 21:30:58;;;;;;;11.30;5.70;;;17.10;99.90;;;;;;6199933;28;20053;-79
2023/08/26 21:34:00;;;;;;;4.63;4.22;;;17.10;99.90;;;;;;6201171;28;20042;-79
2023/08/26 21:37:04;;;;;;;11.02;5.00;;;17.00;99.90;;;;;;6200587;28;20046;-78
2023/08/26 21:40:07;;;;;;;8.63;4.65;;;17.00;99.90;;;;;;6202903;28;20069;-79
2023/08/26 21:43:11;;;;;;;5.22;4.30;;;17.00;99.90;;;;;;6202722;28;20259;-79
2023/08/26 21:46:12;;;;;;;9.23;5.43;;;16.90;99.90;;;;;;6202697;28;20046;-79
2023/08/26 21:49:14;;;;;;;5.60;4.25;;;16.90;99.90;;;;;;6205190;28;20057;-79
2023/08/26 21:52:17;;;;;;;5.20;4.32;;;16.90;99.90;;;;;;6212778;28;20046;-80
2023/08/26 21:55:20;;;;;;;8.15;4.88;;;16.90;99.90;;;;;;6251991;28;20112;-80
2023/08/26 21:58:21;;;;;;;7.28;5.00;;;16.90;99.90;;;;;;6252035;28;20053;-79
2023/08/26 22:01:23;;;;;;;13.02;5.22;;;16.90;99.90;;;;;;6251963;28;20053;-79
2023/08/26 22:04:25;;;;;;;8.10;5.18;;;16.90;99.90;;;;;;6251779;28;20072;-79
2023/08/26 22:07:28;;;;;;;6.15;5.55;;;16.90;99.90;;;;;;6251779;28;20064;-79
2023/08/26 22:10:33;;;;;;;9.32;5.05;;;16.90;99.90;;;;;;6252007;28;20051;-79
2023/08/26 22:13:35;;;;;;;10.43;4.80;;;16.90;99.90;;;;;;6251768;28;20576;-79
2023/08/26 22:16:37;;;;;;;6.88;5.18;;;16.90;99.90;;;;;;6252105;28;20046;-80
2023/08/26 22:19:39;;;;;;;6.18;5.30;;;16.90;99.90;;;;;;6252279;28;20042;-80
2023/08/26 22:22:44;;;;;;;4.85;4.40;;;16.90;99.90;;;;;;6252594;28;20045;-80
2023/08/26 22:25:46;;;;;;;17.55;5.75;;;16.80;99.90;;;;;;6250727;28;20048;-79
2023/08/26 22:28:48;;;;;;;5.68;4.85;;;16.80;99.90;;;;;;6251222;28;20046;-78
2023/08/26 22:31:49;;;;;;;6.13;4.75;;;16.80;99.90;;;;;;6252742;28;20497;-80
2023/08/26 22:34:51;;;;;;;9.55;5.13;;;16.70;99.90;;;;;;6251082;28;20412;-79
2023/08/26 22:37:54;;;;;;;9.60;7.47;;;16.70;99.90;;;;;;6249848;28;20144;-78
2023/08/26 22:40:56;;;;;;;8.88;5.30;;;16.70;99.90;;;;;;6251267;28;20404;-80
2023/08/26 22:43:57;;;;;;;8.60;5.53;;;16.70;99.90;;;;;;6250672;28;20384;-79
2023/08/26 22:47:00;;;;;;;9.13;4.90;;;16.70;99.90;;;;;;6250425;28;20065;-79
2023/08/26 22:50:03;;;;;;;7.20;4.43;;;16.70;99.90;;;;;;6251204;28;20103;-80
2023/08/26 22:53:06;;;;;;;8.57;4.95;;;16.70;99.90;;;;;;6252368;28;20505;-78
2023/08/26 22:56:08;;;;;;;6.55;4.50;;;16.70;99.90;;;;;;6262271;28;20053;-80
2023/08/26 22:59:09;;;;;;;5.60;4.05;;;16.80;99.90;;;;;;6252759;28;20049;-80